Mission Field
KLVM : now visible

Airfield :











YOU CAN JOIN US ON...

 
LOGIN :

Register | Disclaimer

   EN    FR    IT 

 









Legend :    VFR   Marginal VFR   IFR   Intensive IFR   Very Intensive IFR
Visi :
Ceiling :
>= 8 km
>= 3000ft
5 to 8 km
1000 to 3000 ft
1500m to 5 km
500 to 1000 ft
800 to 1500m
200 to 500 ft
< 800m
< 200 ft
Symbols :   Thunderstorms  Fog  Heavy snow  Heavy precipitations  Wind > 20 kt






- Airport Elevation : 4660 ft


KLVM - Mission Field

CURRENT METAR :
  • 080853Z AUTO 27018G26KT 10SM CLR M03/M11 A3002 RMK AO2 PK WND 26029/0829 SLP190 T10281106 53002

EXPIRED METARs :
  • 080753Z AUTO 24018G27KT 10SM CLR M02/M11 A3001 RMK AO2 PK WND 25029/0735 SLP187 T10221106
  • 080653Z AUTO 25021G28KT 10SM CLR M02/M10 A3001 RMK AO2 PK WND 23030/0606 SLP187 T10221100 400331022
  • 080553Z AUTO 22023G31KT 10SM CLR M02/M10 A3001 RMK AO2 PK WND 22031/0544 SLP191 T10171100 10017 21017 58001

TAF KLVM
Valid from the 08 at 06:00 until the 09 at 06:00 UTC


080520Z 0806/0906 23028G41KT P6SM SKC
FM081500 23022G28KT P6SM FEW200
FM090100 23030G45KT P6SM SKC
KZLC FIR / North America



MET'MAP, your aeronautical weather chart ! - Copyright ORBIFLY December 2007 - Disclaimer

ORBIFLY MET'MAP TEAM :

Programming & Development : Alexandra Zaïnal
Original concept : Baudouin d'Aumeries
Technical & hardware support : Manuel Goepfert
Assistance : Marc-Olivier Méhu




SOURCES & CREDITS :

   NOAA       Earth
Advisory